logo
Search for airport 
image banner adimage banner adimage banner ad
image banner ad

SMPA - Paloemeu

Located in , Suriname

ICAO - SMPA, IATA - OEM

Data provided by Airmate  

General information

Coordinates: N3°20'47" W55°26'37"
Elevation is 558 feet MSL.
 
View others Airports in Sipaliwini

Operational data

Special qualification required
Current time UTC:
Current local time:
Weather at : - ( 0 km )
METAR: UIII 162046Z VRB01MPS 0500 0450S PRFG OVC001 13/13 Q1009 R12/CLRD60 NOSIG RMK QBB050 MT OBSC QFE714/0953
View NOTAMs / SUP AIP / TFR affecting this airport [VIEW]
Communications frequencies: [VIEW]

Runways:

RWY identifierQFULength (ft)Width (ft)SurfaceLDA (ft)
0600UNK
2400UNK
07377398UNK
25377398UNK

Airport contact information

Address: Suriname

Satellite view of SMPA